createdAt,value
2018-02-02T00:00:43.824Z,2.60
2018-02-02T00:01:43.824Z,2.57
2018-02-02T00:02:43.807Z,2.53
2018-02-02T00:03:43.783Z,2.56
2018-02-02T00:04:43.771Z,2.56
2018-02-02T00:05:43.805Z,2.54
2018-02-02T00:06:43.769Z,2.50
2018-02-02T00:07:43.731Z,2.56
2018-02-02T00:08:43.724Z,2.56
2018-02-02T00:09:43.710Z,2.57
2018-02-02T00:10:43.691Z,2.51
2018-02-02T00:11:43.679Z,2.53
2018-02-02T00:12:43.665Z,2.51
2018-02-02T00:13:43.653Z,2.53
2018-02-02T00:14:43.643Z,2.54
2018-02-02T00:15:43.632Z,2.51
2018-02-02T00:16:43.615Z,2.57
2018-02-02T00:17:43.612Z,2.51
2018-02-02T00:18:43.586Z,2.60
2018-02-02T00:19:43.579Z,2.54
2018-02-02T00:20:43.565Z,2.53
2018-02-02T00:21:43.551Z,2.56
2018-02-02T00:22:43.541Z,2.56
2018-02-02T00:23:43.536Z,2.65
2018-02-02T00:24:43.517Z,2.65
2018-02-02T00:25:43.512Z,2.67
2018-02-02T00:26:43.489Z,2.71
2018-02-02T00:27:43.481Z,2.68
2018-02-02T00:28:43.484Z,2.68
2018-02-02T00:29:43.448Z,2.71
2018-02-02T00:30:43.441Z,2.56
2018-02-02T00:31:43.425Z,2.53
2018-02-02T00:32:43.413Z,2.51
2018-02-02T00:33:43.412Z,2.53
2018-02-02T00:34:43.392Z,2.62
2018-02-02T00:35:43.376Z,2.67
2018-02-02T00:36:43.407Z,2.72
2018-02-02T00:37:43.347Z,2.64
2018-02-02T00:38:43.343Z,2.64
2018-02-02T00:39:43.341Z,2.67
2018-02-02T00:40:43.345Z,2.65
2018-02-02T00:41:43.313Z,2.64
2018-02-02T00:42:43.287Z,2.67
2018-02-02T00:43:43.275Z,2.74
2018-02-02T00:44:43.268Z,2.67
2018-02-02T00:45:43.251Z,2.67
2018-02-02T00:46:43.237Z,2.71
2018-02-02T00:47:43.222Z,2.64
2018-02-02T00:48:43.222Z,2.64
2018-02-02T00:49:43.207Z,2.67
2018-02-02T00:50:43.189Z,2.65
2018-02-02T00:51:43.197Z,2.61
2018-02-02T00:52:43.160Z,2.61
2018-02-02T00:53:43.147Z,2.69
2018-02-02T00:54:43.141Z,2.64
2018-02-02T00:55:43.128Z,2.75
2018-02-02T00:56:43.114Z,2.75
2018-02-02T00:57:43.099Z,2.71
2018-02-02T00:58:43.086Z,2.69
2018-02-02T00:59:43.085Z,2.71
2018-02-02T01:00:43.058Z,2.65
2018-02-02T01:01:43.059Z,2.69
2018-02-02T01:02:43.036Z,2.77
2018-02-02T01:03:43.023Z,2.74
2018-02-02T01:04:43.010Z,2.74
2018-02-02T01:05:42.999Z,2.75
2018-02-02T01:06:42.986Z,2.77
2018-02-02T01:07:42.980Z,2.75
2018-02-02T01:08:42.964Z,2.71
2018-02-02T01:09:42.961Z,2.74
2018-02-02T01:10:42.939Z,2.80
2018-02-02T01:11:42.958Z,2.79
2018-02-02T01:12:42.921Z,2.86
2018-02-02T01:13:42.900Z,2.82
2018-02-02T01:14:42.901Z,2.83
2018-02-02T01:15:42.895Z,2.89
2018-02-02T01:16:42.888Z,2.86
2018-02-02T01:17:42.851Z,2.82
2018-02-02T01:18:42.839Z,2.83
2018-02-02T01:19:42.826Z,2.86
2018-02-02T01:20:42.811Z,2.85
2018-02-02T01:21:42.823Z,2.87
2018-02-02T01:22:42.788Z,2.92
2018-02-02T01:23:42.788Z,2.82
2018-02-02T01:24:42.763Z,2.83
2018-02-02T01:25:42.747Z,2.79
2018-02-02T01:26:42.738Z,2.86
2018-02-02T01:27:42.739Z,2.80
2018-02-02T01:28:42.715Z,2.79
2018-02-02T01:29:42.704Z,2.87
2018-02-02T01:30:42.700Z,2.86
2018-02-02T01:31:42.701Z,2.83
2018-02-02T01:32:42.667Z,2.83
2018-02-02T01:33:42.651Z,2.89
2018-02-02T01:34:42.644Z,2.87
2018-02-02T01:35:42.627Z,2.86
2018-02-02T01:36:42.622Z,2.77
2018-02-02T01:37:42.631Z,2.87
2018-02-02T01:38:42.590Z,2.86
2018-02-02T01:39:42.581Z,2.98
2018-02-02T01:40:42.562Z,2.95
2018-02-02T01:41:42.555Z,2.98
2018-02-02T01:42:42.549Z,2.98
2018-02-02T01:43:42.544Z,3.00
2018-02-02T01:44:42.516Z,2.93
2018-02-02T01:45:42.503Z,2.95
2018-02-02T01:46:42.490Z,2.92
2018-02-02T01:47:42.477Z,2.98
2018-02-02T01:48:42.463Z,2.92
2018-02-02T01:49:42.480Z,3.00
2018-02-02T01:50:42.441Z,3.04
2018-02-02T01:51:42.433Z,3.07
2018-02-02T01:52:42.416Z,2.98
2018-02-02T01:53:42.419Z,2.97
2018-02-02T01:54:42.397Z,2.89
2018-02-02T01:55:42.385Z,2.95
2018-02-02T01:56:42.372Z,2.98
2018-02-02T01:57:42.371Z,2.95
2018-02-02T01:58:42.380Z,2.98
2018-02-02T01:59:42.337Z,2.87
2018-02-02T02:00:42.318Z,2.97
2018-02-02T02:01:42.307Z,2.98
2018-02-02T02:02:42.290Z,3.05
2018-02-02T02:03:42.292Z,3.00
2018-02-02T02:04:42.293Z,2.95
2018-02-02T02:05:42.256Z,2.92
2018-02-02T02:06:42.251Z,2.98
2018-02-02T02:07:42.232Z,2.95
2018-02-02T02:08:42.217Z,3.05
2018-02-02T02:09:42.209Z,3.01
2018-02-02T02:10:42.209Z,3.05
2018-02-02T02:11:42.182Z,3.08
2018-02-02T02:12:42.196Z,3.10
2018-02-02T02:13:42.165Z,3.04
2018-02-02T02:14:42.147Z,3.07
2018-02-02T02:15:42.139Z,3.08
2018-02-02T02:16:42.120Z,3.10
2018-02-02T02:17:42.128Z,3.11
2018-02-02T02:18:42.138Z,3.04
2018-02-02T02:19:42.083Z,3.07
2018-02-02T02:20:42.071Z,3.10
2018-02-02T02:21:42.057Z,3.14
2018-02-02T02:22:42.048Z,3.18
2018-02-02T02:23:42.054Z,3.10
2018-02-02T02:24:42.032Z,3.00
2018-02-02T02:25:42.044Z,3.01
2018-02-02T02:26:41.996Z,2.93
2018-02-02T02:27:41.987Z,2.89
2018-02-02T02:28:41.983Z,2.87
2018-02-02T02:29:41.960Z,3.01
2018-02-02T02:30:41.948Z,3.03
2018-02-02T02:31:41.948Z,2.93
2018-02-02T02:32:41.954Z,3.01
2018-02-02T02:33:41.948Z,2.95
2018-02-02T02:34:41.898Z,2.95
2018-02-02T02:35:41.886Z,2.98
2018-02-02T02:36:41.875Z,2.97
2018-02-02T02:37:41.858Z,2.93
2018-02-02T02:38:41.866Z,2.97
2018-02-02T02:39:41.836Z,2.95
2018-02-02T02:40:41.822Z,3.01
2018-02-02T02:41:41.816Z,2.95
2018-02-02T02:42:41.806Z,2.93
2018-02-02T02:43:41.787Z,2.98
2018-02-02T02:44:42.668Z,2.95
2018-02-02T02:45:41.767Z,2.97
2018-02-02T02:46:41.775Z,2.90
2018-02-02T02:47:41.743Z,2.86
2018-02-02T02:48:41.724Z,2.86
2018-02-02T02:49:41.713Z,2.74
2018-02-02T02:50:41.700Z,2.82
2018-02-02T02:51:41.685Z,2.72
2018-02-02T02:52:41.672Z,2.65
2018-02-02T02:53:41.661Z,2.65
2018-02-02T02:54:41.646Z,2.53
2018-02-02T02:55:41.639Z,2.53
2018-02-02T02:56:41.622Z,2.47
2018-02-02T02:57:41.611Z,2.38
2018-02-02T02:58:41.610Z,2.35
2018-02-02T02:59:41.588Z,2.29
2018-02-02T03:00:41.581Z,2.31
2018-02-02T03:01:41.562Z,2.26
2018-02-02T03:02:41.550Z,2.10
2018-02-02T03:03:41.534Z,2.06
2018-02-02T03:04:41.520Z,2.18
2018-02-02T03:05:41.508Z,2.17
2018-02-02T03:06:41.496Z,2.13
2018-02-02T03:07:41.483Z,1.99
2018-02-02T03:08:41.473Z,2.02
2018-02-02T03:09:41.459Z,1.97
2018-02-02T03:10:41.456Z,1.92
2018-02-02T03:11:41.438Z,1.95
2018-02-02T03:12:41.417Z,1.88
2018-02-02T03:13:41.405Z,1.91
2018-02-02T03:14:41.396Z,1.92
2018-02-02T03:15:41.386Z,1.97
2018-02-02T03:16:41.367Z,1.89
2018-02-02T03:17:41.354Z,1.84
2018-02-02T03:18:41.338Z,1.84
2018-02-02T03:19:41.332Z,1.81
2018-02-02T03:20:41.312Z,1.80
2018-02-02T03:21:41.303Z,1.78
2018-02-02T03:22:41.297Z,1.71
2018-02-02T03:23:41.280Z,1.80
2018-02-02T03:24:41.270Z,1.70
2018-02-02T03:25:41.250Z,1.71
2018-02-02T03:26:41.240Z,1.71
2018-02-02T03:27:41.228Z,1.78
2018-02-02T03:28:41.210Z,1.77
2018-02-02T03:29:41.200Z,1.81
2018-02-02T03:30:41.187Z,1.87
2018-02-02T03:31:41.173Z,1.84
2018-02-02T03:32:41.159Z,1.84
2018-02-02T03:33:41.143Z,1.89
2018-02-02T03:34:41.134Z,1.81
2018-02-02T03:35:41.120Z,1.85
2018-02-02T03:36:41.111Z,1.91
2018-02-02T03:37:41.093Z,1.89
2018-02-02T03:38:41.077Z,1.97
2018-02-02T03:39:41.076Z,1.92
2018-02-02T03:40:41.062Z,1.88
2018-02-02T03:41:41.048Z,1.97
2018-02-02T03:42:41.032Z,1.94
2018-02-02T03:43:41.017Z,1.77
2018-02-02T03:44:41.003Z,1.88
2018-02-02T03:45:40.998Z,1.81
2018-02-02T03:46:40.979Z,1.77
2018-02-02T03:47:40.965Z,1.77
2018-02-02T03:48:40.951Z,1.91
2018-02-02T03:49:40.935Z,1.94
2018-02-02T03:50:40.928Z,1.92
2018-02-02T03:51:40.912Z,1.94
2018-02-02T03:52:40.898Z,2.02
2018-02-02T03:53:40.883Z,1.91
2018-02-02T03:54:40.872Z,1.89
2018-02-02T03:55:40.860Z,1.88
2018-02-02T03:56:40.845Z,2.02
2018-02-02T03:57:40.834Z,1.95
2018-02-02T03:58:40.821Z,2.04
2018-02-02T03:59:40.813Z,2.02
2018-02-02T04:00:40.830Z,1.95
2018-02-02T04:01:40.782Z,1.97
2018-02-02T04:02:40.778Z,1.99
2018-02-02T04:03:40.754Z,1.95
2018-02-02T04:04:40.743Z,1.95
2018-02-02T04:05:40.726Z,1.97
2018-02-02T04:06:40.729Z,1.97
2018-02-02T04:07:40.706Z,1.94
2018-02-02T04:08:40.692Z,1.99
2018-02-02T04:09:40.679Z,2.00
2018-02-02T04:10:40.665Z,2.00
2018-02-02T04:11:40.654Z,1.97
2018-02-02T04:12:40.635Z,2.06
2018-02-02T04:13:40.624Z,2.00
2018-02-02T04:14:40.610Z,1.94
2018-02-02T04:15:40.595Z,1.97
2018-02-02T04:16:40.611Z,1.97
2018-02-02T04:17:40.573Z,2.00
2018-02-02T04:18:40.561Z,1.94
2018-02-02T04:19:40.550Z,2.04
2018-02-02T04:20:40.535Z,2.04
2018-02-02T04:21:40.522Z,2.02
2018-02-02T04:22:40.512Z,1.99
2018-02-02T04:23:40.498Z,2.00
2018-02-02T04:24:40.479Z,2.04
2018-02-02T04:25:40.466Z,2.04
2018-02-02T04:28:13.710Z,1.91
2018-02-02T04:29:13.663Z,2.04
2018-02-02T04:30:13.655Z,2.17
2018-02-02T04:31:13.636Z,2.11
2018-02-02T04:32:13.627Z,2.04
2018-02-02T04:33:13.610Z,2.08
2018-02-02T04:34:13.594Z,2.08
2018-02-02T04:35:13.587Z,2.06
2018-02-02T04:36:13.582Z,2.07
2018-02-02T04:37:13.561Z,2.07
2018-02-02T04:38:13.546Z,2.10
2018-02-02T04:39:13.538Z,2.04
2018-02-02T04:40:13.521Z,2.06
2018-02-02T04:41:13.527Z,2.06
2018-02-02T04:42:13.496Z,2.10
2018-02-02T04:43:13.481Z,2.07
2018-02-02T04:44:13.483Z,2.14
2018-02-02T04:45:13.457Z,2.10
2018-02-02T04:46:13.446Z,2.11
2018-02-02T04:47:13.431Z,2.10
2018-02-02T04:48:13.421Z,2.11
2018-02-02T04:49:13.406Z,2.11
2018-02-02T04:50:13.392Z,2.17
2018-02-02T04:51:13.381Z,2.07
2018-02-02T04:52:13.368Z,2.07
2018-02-02T04:53:13.360Z,2.14
2018-02-02T04:54:13.342Z,2.13
2018-02-02T04:55:13.336Z,2.08
2018-02-02T04:56:13.312Z,2.06
2018-02-02T04:57:13.322Z,2.08
2018-02-02T04:58:13.286Z,2.00
2018-02-02T04:59:13.277Z,2.13
2018-02-02T05:00:13.269Z,2.14
2018-02-02T05:01:13.246Z,2.10
2018-02-02T05:02:13.242Z,2.15
2018-02-02T05:03:13.228Z,2.14
2018-02-02T05:04:13.213Z,2.13
2018-02-02T05:05:13.198Z,2.17
2018-02-02T05:06:13.191Z,2.10
2018-02-02T05:07:13.180Z,2.13
2018-02-02T05:08:13.162Z,2.14
2018-02-02T05:09:13.151Z,2.11
2018-02-02T05:10:13.135Z,2.13
2018-02-02T05:11:13.122Z,2.02
2018-02-02T05:12:13.110Z,2.11
2018-02-02T05:13:13.099Z,2.02
2018-02-02T05:14:13.092Z,2.11
2018-02-02T05:15:13.069Z,2.15
2018-02-02T05:16:13.054Z,2.07
2018-02-02T05:17:13.052Z,2.10
2018-02-02T05:18:13.038Z,2.02
2018-02-02T05:19:13.032Z,2.10
2018-02-02T05:20:13.008Z,2.18
2018-02-02T05:21:12.992Z,2.13
2018-02-02T05:22:12.991Z,2.08
2018-02-02T05:23:12.975Z,1.95
2018-02-02T05:24:12.952Z,2.06
2018-02-02T05:25:12.943Z,2.00
2018-02-02T05:26:12.929Z,2.00
2018-02-02T05:27:12.918Z,2.02
2018-02-02T05:28:12.905Z,2.02
2018-02-02T05:29:12.890Z,2.06
2018-02-02T05:30:12.877Z,1.97
2018-02-02T05:31:12.863Z,1.99
2018-02-02T05:32:12.853Z,2.04
2018-02-02T05:33:12.842Z,2.00
2018-02-02T05:34:12.826Z,2.00
2018-02-02T05:35:12.812Z,2.04
2018-02-02T05:36:12.802Z,1.99
2018-02-02T05:37:12.783Z,1.88
2018-02-02T05:38:12.770Z,1.81
2018-02-02T05:39:12.764Z,1.80
2018-02-02T05:40:12.752Z,1.77
2018-02-02T05:41:12.737Z,1.68
2018-02-02T05:42:12.718Z,1.73
2018-02-02T05:43:12.707Z,1.68
2018-02-02T05:44:12.696Z,1.78
2018-02-02T05:45:12.684Z,1.59
2018-02-02T05:46:12.670Z,1.63
2018-02-02T05:47:12.657Z,1.63
2018-02-02T05:48:12.645Z,1.60
2018-02-02T05:49:12.632Z,1.58
2018-02-02T05:50:12.621Z,1.59
2018-02-02T05:51:12.610Z,1.40
2018-02-02T05:52:12.598Z,1.45
2018-02-02T05:53:12.583Z,1.37
2018-02-02T05:54:12.571Z,1.34
2018-02-02T05:55:12.555Z,1.34
2018-02-02T05:56:12.539Z,1.22
2018-02-02T05:57:12.541Z,1.19
2018-02-02T05:58:12.516Z,1.24
2018-02-02T05:59:12.507Z,1.26
2018-02-02T06:00:12.493Z,1.17
2018-02-02T06:01:12.474Z,1.12
2018-02-02T06:02:12.465Z,1.22
2018-02-02T06:03:12.451Z,1.14
2018-02-02T06:04:12.483Z,1.13
2018-02-02T06:05:12.426Z,1.10
2018-02-02T06:06:12.501Z,1.12
2018-02-02T06:07:12.398Z,1.17
2018-02-02T06:08:12.383Z,1.01
2018-02-02T06:09:12.376Z,1.02
2018-02-02T06:10:12.356Z,0.95
2018-02-02T06:11:12.350Z,0.96
2018-02-02T06:12:12.332Z,1.01
2018-02-02T06:13:12.324Z,1.05
2018-02-02T06:14:12.301Z,0.95
2018-02-02T06:15:12.302Z,0.92
2018-02-02T06:16:12.281Z,0.94
2018-02-02T06:17:12.267Z,0.95
2018-02-02T06:18:12.251Z,1.02
2018-02-02T06:19:12.236Z,0.99
2018-02-02T06:20:12.227Z,1.04
2018-02-02T06:21:12.210Z,0.95
2018-02-02T06:22:12.202Z,0.99
2018-02-02T06:23:12.187Z,0.99
2018-02-02T06:24:12.181Z,0.95
2018-02-02T06:25:12.171Z,1.02
2018-02-02T06:26:12.144Z,1.05
2018-02-02T06:27:12.137Z,1.12
2018-02-02T06:28:12.119Z,1.05
2018-02-02T06:29:12.110Z,1.13
2018-02-02T06:30:12.095Z,1.13
2018-02-02T06:31:12.082Z,1.17
2018-02-02T06:32:12.073Z,1.19
2018-02-02T06:33:12.051Z,1.16
2018-02-02T06:34:12.043Z,1.19
2018-02-02T06:35:12.031Z,1.19
2018-02-02T06:36:12.020Z,1.17
2018-02-02T06:37:11.997Z,1.22
2018-02-02T06:38:11.984Z,1.28
2018-02-02T06:39:11.971Z,1.20
2018-02-02T06:40:11.962Z,1.22
2018-02-02T06:41:11.941Z,1.31
2018-02-02T06:42:11.929Z,1.31
2018-02-02T06:43:11.919Z,1.34
2018-02-02T06:44:11.905Z,1.37
2018-02-02T06:45:11.895Z,1.28
2018-02-02T06:46:11.876Z,1.32
2018-02-02T06:47:11.866Z,1.35
2018-02-02T06:48:11.883Z,1.41
2018-02-02T06:49:11.849Z,1.40
2018-02-02T06:50:11.831Z,1.41
2018-02-02T06:51:11.808Z,1.41
2018-02-02T06:52:11.798Z,1.45
2018-02-02T06:53:11.785Z,1.45
2018-02-02T06:54:11.767Z,1.42
2018-02-02T06:55:11.756Z,1.42
2018-02-02T06:56:11.739Z,1.42
2018-02-02T06:57:11.736Z,1.48
2018-02-02T06:58:11.716Z,1.41
2018-02-02T06:59:11.700Z,1.41
2018-02-02T07:00:11.699Z,1.48
2018-02-02T07:01:11.673Z,1.38
2018-02-02T07:02:11.667Z,1.42
2018-02-02T07:03:11.647Z,1.42
2018-02-02T07:04:11.634Z,1.53
2018-02-02T07:05:11.642Z,1.63
2018-02-02T07:06:11.613Z,1.56
2018-02-02T07:07:11.593Z,1.58
2018-02-02T07:08:11.609Z,1.58
2018-02-02T07:09:11.582Z,1.59
2018-02-02T07:10:11.559Z,1.60
2018-02-02T07:11:11.580Z,1.62
2018-02-02T07:12:11.527Z,1.66
2018-02-02T07:13:11.642Z,1.66
2018-02-02T07:14:11.504Z,1.62
2018-02-02T07:15:11.494Z,1.60
2018-02-02T07:16:11.481Z,1.63
2018-02-02T07:17:11.468Z,1.67
2018-02-02T07:18:11.461Z,1.68
2018-02-02T07:19:12.122Z,1.63
2018-02-02T07:20:11.430Z,1.73
2018-02-02T07:21:11.411Z,1.67
2018-02-02T07:22:11.395Z,1.74
2018-02-02T07:23:11.402Z,1.67
2018-02-02T07:24:11.372Z,1.70
2018-02-02T07:25:11.363Z,1.74
2018-02-02T07:26:11.355Z,1.74
2018-02-02T07:27:11.354Z,1.76
2018-02-02T07:28:11.329Z,1.81
2018-02-02T07:29:11.313Z,1.95
2018-02-02T07:30:11.294Z,2.06
2018-02-02T07:31:11.293Z,1.94
2018-02-02T07:32:11.266Z,1.88
2018-02-02T07:33:11.255Z,1.89
2018-02-02T07:34:11.283Z,1.87
2018-02-02T07:35:11.225Z,1.97
2018-02-02T07:36:11.225Z,1.88
2018-02-02T07:37:11.201Z,1.88
2018-02-02T07:38:11.192Z,1.91
2018-02-02T07:39:11.193Z,1.85
2018-02-02T07:40:13.109Z,1.91
2018-02-02T07:41:11.173Z,1.95
2018-02-02T07:42:11.143Z,1.89
2018-02-02T07:43:11.127Z,1.89
2018-02-02T07:44:11.110Z,1.99
2018-02-02T07:45:11.099Z,1.91
2018-02-02T07:46:11.090Z,1.88
2018-02-02T07:47:11.089Z,1.99
2018-02-02T07:48:11.059Z,1.91
2018-02-02T07:49:11.065Z,1.97
2018-02-02T07:50:11.040Z,1.91
2018-02-02T07:51:11.026Z,1.97
2018-02-02T07:52:11.022Z,1.94
2018-02-02T07:53:11.022Z,2.02
2018-02-02T07:54:10.991Z,2.00
2018-02-02T07:55:10.982Z,1.97
2018-02-02T07:56:10.960Z,1.97
2018-02-02T07:57:10.946Z,2.02
2018-02-02T07:58:10.940Z,1.91
2018-02-02T07:59:10.922Z,1.94
2018-02-02T08:00:10.909Z,1.94
2018-02-02T08:01:10.896Z,1.88
2018-02-02T08:02:10.884Z,1.88
2018-02-02T08:03:10.872Z,1.89
2018-02-02T08:04:10.859Z,1.99
2018-02-02T08:05:10.841Z,1.87
2018-02-02T08:06:10.834Z,2.04
2018-02-02T08:07:10.830Z,2.06
2018-02-02T08:08:10.815Z,2.13
2018-02-02T08:09:10.791Z,2.25
2018-02-02T08:10:10.780Z,2.17
2018-02-02T08:11:10.768Z,2.18
2018-02-02T08:12:10.752Z,2.11
2018-02-02T08:13:10.741Z,2.13
2018-02-02T08:14:10.731Z,2.10
2018-02-02T08:15:10.719Z,2.13
2018-02-02T08:16:10.711Z,2.08
2018-02-02T08:17:10.687Z,2.07
2018-02-02T08:18:10.678Z,2.08
2018-02-02T08:19:10.663Z,2.17
2018-02-02T08:20:10.654Z,2.18
2018-02-02T08:21:10.640Z,2.17
2018-02-02T08:22:10.648Z,2.07
2018-02-02T08:23:10.614Z,2.18
2018-02-02T08:24:10.612Z,2.33
2018-02-02T08:25:10.585Z,2.18
2018-02-02T08:26:10.586Z,2.15
2018-02-02T08:27:10.563Z,2.15
2018-02-02T08:28:10.552Z,2.28
2018-02-02T08:29:10.546Z,2.49
2018-02-02T08:30:10.527Z,2.38
2018-02-02T08:31:10.519Z,2.36
2018-02-02T08:32:10.499Z,2.33
2018-02-02T08:33:10.484Z,2.13
2018-02-02T08:34:10.485Z,2.25
2018-02-02T08:35:10.470Z,2.17
2018-02-02T08:36:10.453Z,2.35
2018-02-02T08:37:10.438Z,2.38
2018-02-02T08:38:10.425Z,2.49
2018-02-02T08:39:10.419Z,2.36
2018-02-02T08:40:10.404Z,2.28
2018-02-02T08:41:10.385Z,2.29
2018-02-02T08:42:10.377Z,2.26
2018-02-02T08:43:10.401Z,2.44
2018-02-02T08:44:10.350Z,2.39
2018-02-02T08:45:10.338Z,2.46
2018-02-02T08:46:10.335Z,2.43
2018-02-02T08:47:10.328Z,2.38
2018-02-02T08:48:10.301Z,2.31
2018-02-02T08:49:10.291Z,2.36
2018-02-02T08:50:10.286Z,2.46
2018-02-02T08:51:10.266Z,2.33
2018-02-02T08:52:10.252Z,2.46
2018-02-02T08:53:10.236Z,2.50
2018-02-02T08:54:10.228Z,2.51
2018-02-02T08:55:10.212Z,2.44
2018-02-02T08:56:10.224Z,2.39
2018-02-02T08:57:10.200Z,2.47
2018-02-02T08:58:10.183Z,2.46
2018-02-02T08:59:10.162Z,2.50
2018-02-02T09:00:10.194Z,2.50
2018-02-02T09:01:10.158Z,2.51
2018-02-02T09:02:10.133Z,2.56
2018-02-02T09:03:10.117Z,2.49
2018-02-02T09:04:10.106Z,2.49
2018-02-02T09:05:10.086Z,2.46
2018-02-02T09:06:10.084Z,2.53
2018-02-02T09:07:10.067Z,2.49
2018-02-02T09:08:10.054Z,2.53
2018-02-02T09:09:10.038Z,2.54
2018-02-02T09:10:10.048Z,2.64
2018-02-02T09:11:10.017Z,2.61
2018-02-02T09:12:10.013Z,2.72
2018-02-02T09:13:09.994Z,2.71
2018-02-02T09:14:09.982Z,2.72
2018-02-02T09:15:09.972Z,2.64
2018-02-02T09:16:09.965Z,2.67
2018-02-02T09:17:09.965Z,2.64
2018-02-02T09:18:09.936Z,2.54
2018-02-02T09:19:09.919Z,2.51
2018-02-02T09:20:09.904Z,2.51
2018-02-02T09:21:09.892Z,2.67
2018-02-02T09:22:09.880Z,2.80
2018-02-02T09:23:09.871Z,2.65
2018-02-02T09:24:09.856Z,2.79
2018-02-02T09:25:09.843Z,2.77
2018-02-02T09:26:09.837Z,2.83
2018-02-02T09:27:09.824Z,2.82
2018-02-02T09:28:09.807Z,2.80
2018-02-02T09:29:09.799Z,2.86
2018-02-02T09:30:09.783Z,2.85
2018-02-02T09:31:09.820Z,2.82
2018-02-02T09:32:09.770Z,2.86
2018-02-02T09:33:09.756Z,2.87
2018-02-02T09:34:09.750Z,2.71
2018-02-02T09:35:09.725Z,2.92
2018-02-02T09:36:09.715Z,3.00
2018-02-02T09:37:09.697Z,2.93
2018-02-02T09:38:09.687Z,2.92
2018-02-02T09:39:09.680Z,2.92
2018-02-02T09:40:09.674Z,2.95
2018-02-02T09:41:09.654Z,2.93
2018-02-02T09:42:09.653Z,2.98
2018-02-02T09:43:09.635Z,3.01
2018-02-02T09:44:09.620Z,2.98
2018-02-02T09:45:09.615Z,3.11
2018-02-02T09:46:09.594Z,3.08
2018-02-02T09:47:09.585Z,3.14
2018-02-02T09:48:09.579Z,3.10
2018-02-02T09:49:09.553Z,3.08
2018-02-02T09:50:09.547Z,3.19
2018-02-02T09:51:09.530Z,3.19
2018-02-02T09:52:09.523Z,3.11
2018-02-02T09:53:09.529Z,3.23
2018-02-02T09:54:09.507Z,3.13
2018-02-02T09:55:09.486Z,3.14
2018-02-02T09:56:09.491Z,3.10
2018-02-02T09:57:09.464Z,3.04
2018-02-02T09:58:09.450Z,3.10
2018-02-02T09:59:09.453Z,3.05
2018-02-02T10:00:09.445Z,3.16
2018-02-02T10:01:09.423Z,3.21
2018-02-02T10:02:09.404Z,3.29
2018-02-02T10:03:09.395Z,3.21
2018-02-02T10:04:09.396Z,3.18
2018-02-02T10:05:09.387Z,3.26
2018-02-02T10:06:09.370Z,3.25
2018-02-02T10:07:09.361Z,3.21
2018-02-02T10:08:09.334Z,3.18
2018-02-02T10:09:09.326Z,3.28
2018-02-02T10:10:09.308Z,3.32
2018-02-02T10:11:09.297Z,3.36
2018-02-02T10:12:09.287Z,3.36
2018-02-02T10:13:09.295Z,3.29
2018-02-02T10:14:09.270Z,3.31
2018-02-02T10:15:09.250Z,3.41
2018-02-02T10:16:09.240Z,3.44
2018-02-02T10:17:09.228Z,3.44
2018-02-02T10:18:09.221Z,3.50
2018-02-02T10:19:09.206Z,3.45
2018-02-02T10:20:09.193Z,3.36
2018-02-02T10:21:09.183Z,3.32
2018-02-02T10:22:09.205Z,3.23
2018-02-02T10:23:09.163Z,3.29
2018-02-02T10:24:09.148Z,3.45
2018-02-02T10:25:09.130Z,3.48
2018-02-02T10:26:09.124Z,3.53
2018-02-02T10:27:09.114Z,3.56
2018-02-02T10:28:09.099Z,3.44
2018-02-02T10:29:09.090Z,3.48
2018-02-02T10:30:09.080Z,3.51
2018-02-02T10:31:09.067Z,3.60
2018-02-02T10:32:09.069Z,3.53
2018-02-02T10:33:09.046Z,3.53
2018-02-02T10:34:09.047Z,3.58
2018-02-02T10:35:09.041Z,3.50
2018-02-02T10:36:09.013Z,3.65
2018-02-02T10:37:09.085Z,3.78
2018-02-02T10:38:09.019Z,3.73
2018-02-02T10:39:08.971Z,3.74
2018-02-02T10:40:08.962Z,3.68
2018-02-02T10:41:08.976Z,3.65
2018-02-02T10:42:08.943Z,3.51
2018-02-02T10:43:08.929Z,3.58
2018-02-02T10:44:08.921Z,3.59
2018-02-02T10:45:08.916Z,3.51
2018-02-02T10:46:08.893Z,3.56
2018-02-02T10:47:08.911Z,3.56
2018-02-02T10:48:08.878Z,3.58
2018-02-02T10:49:08.884Z,3.70
2018-02-02T10:50:08.853Z,3.73
2018-02-02T10:51:08.841Z,3.78
2018-02-02T10:52:08.834Z,3.77
2018-02-02T10:53:08.864Z,3.78
2018-02-02T10:54:08.812Z,3.80
2018-02-02T10:55:08.794Z,3.78
2018-02-02T10:56:08.780Z,3.78
2018-02-02T10:57:08.782Z,3.86
2018-02-02T10:58:08.778Z,3.73
2018-02-02T10:59:08.753Z,3.92
2018-02-02T11:00:08.746Z,3.94
2018-02-02T11:01:08.727Z,3.91
2018-02-02T11:02:08.714Z,3.94
2018-02-02T11:03:08.715Z,3.92
2018-02-02T11:04:08.700Z,3.87
2018-02-02T11:05:08.685Z,3.88
2018-02-02T11:06:08.693Z,4.02
2018-02-02T11:07:08.666Z,4.04
2018-02-02T11:08:08.648Z,4.02
2018-02-02T11:09:08.651Z,3.99
2018-02-02T11:10:08.641Z,4.06
2018-02-02T11:11:08.621Z,4.05
2018-02-02T11:12:08.607Z,4.05
2018-02-02T11:13:08.591Z,3.99
2018-02-02T11:14:08.588Z,3.98
2018-02-02T11:15:08.593Z,4.02
2018-02-02T11:16:08.563Z,4.10
2018-02-02T11:17:08.558Z,4.05
2018-02-02T11:18:08.547Z,4.05
2018-02-02T11:19:08.527Z,4.01
2018-02-02T11:20:08.531Z,4.08
2018-02-02T11:21:08.544Z,4.05
2018-02-02T11:22:08.499Z,4.05
2018-02-02T11:23:08.510Z,4.10
2018-02-02T11:24:08.475Z,4.19
2018-02-02T11:25:08.465Z,4.16
2018-02-02T11:26:08.480Z,4.19
2018-02-02T11:27:08.445Z,4.16
2018-02-02T11:28:08.442Z,4.08
2018-02-02T11:29:08.420Z,4.16
2018-02-02T11:30:08.407Z,4.12
2018-02-02T11:31:08.397Z,4.20
2018-02-02T11:32:08.402Z,4.22
2018-02-02T11:33:08.408Z,4.28
2018-02-02T11:34:08.391Z,4.30
2018-02-02T11:35:08.373Z,4.26
2018-02-02T11:36:08.344Z,4.31
2018-02-02T11:37:08.334Z,4.28
2018-02-02T11:38:08.328Z,4.23
2018-02-02T11:39:08.316Z,4.30
2018-02-02T11:40:08.307Z,4.24
2018-02-02T11:41:08.292Z,4.19
2018-02-02T11:42:08.285Z,4.23
2018-02-02T11:43:08.277Z,4.20
2018-02-02T11:44:08.257Z,4.22
2018-02-02T11:45:08.255Z,4.30
2018-02-02T11:46:08.242Z,4.24
2018-02-02T11:47:08.231Z,4.38
2018-02-02T11:48:08.223Z,4.40
2018-02-02T11:49:08.226Z,4.28
2018-02-02T11:50:08.214Z,4.40
2018-02-02T11:51:08.183Z,4.44
2018-02-02T11:52:08.180Z,4.41
2018-02-02T11:53:08.183Z,4.45
2018-02-02T11:54:08.171Z,4.42
2018-02-02T11:55:08.142Z,4.42
2018-02-02T11:56:08.140Z,4.49
2018-02-02T11:57:08.135Z,4.35
2018-02-02T11:58:08.112Z,4.52
2018-02-02T11:59:08.098Z,4.45
2018-02-02T12:00:08.107Z,4.45
2018-02-02T12:01:08.099Z,4.49
2018-02-02T12:02:08.083Z,4.49
2018-02-02T12:03:08.057Z,4.50
2018-02-02T12:04:08.050Z,4.52
2018-02-02T12:05:08.035Z,4.49
2018-02-02T12:06:08.029Z,4.48
2018-02-02T12:07:08.010Z,4.55
2018-02-02T12:08:08.013Z,4.59
2018-02-02T12:09:08.060Z,4.52
2018-02-02T12:10:07.988Z,4.52
2018-02-02T12:11:07.983Z,4.44
2018-02-02T12:12:07.967Z,4.48
2018-02-02T12:13:07.947Z,4.55
2018-02-02T12:14:07.944Z,4.55
2018-02-02T12:15:07.958Z,4.56
2018-02-02T12:16:07.923Z,4.63
2018-02-02T12:17:07.902Z,4.70
2018-02-02T12:18:07.898Z,4.68
2018-02-02T12:19:07.923Z,4.77
2018-02-02T12:20:07.892Z,4.80
2018-02-02T12:21:07.866Z,4.77
2018-02-02T12:22:07.860Z,4.82
2018-02-02T12:23:07.865Z,4.84
2018-02-02T12:24:07.825Z,4.80
2018-02-02T12:25:07.843Z,4.86
2018-02-02T12:26:07.818Z,4.87
2018-02-02T12:27:07.800Z,4.92
2018-02-02T12:28:07.893Z,5.07
2018-02-02T12:29:07.789Z,5.15
2018-02-02T12:30:07.783Z,5.11
2018-02-02T12:31:07.791Z,5.15
2018-02-02T12:32:07.751Z,5.26
2018-02-02T12:33:07.742Z,5.28
2018-02-02T12:34:07.765Z,5.32
2018-02-02T12:35:07.779Z,5.28
2018-02-02T12:36:07.767Z,5.33
2018-02-02T12:37:07.726Z,5.46
2018-02-02T12:38:07.699Z,5.48
2018-02-02T12:39:07.678Z,5.47
2018-02-02T12:40:07.671Z,5.33
2018-02-02T12:41:07.659Z,5.51
2018-02-02T12:42:07.650Z,5.54
2018-02-02T12:43:07.641Z,5.53
2018-02-02T12:44:07.658Z,5.64
2018-02-02T12:45:07.619Z,5.73
2018-02-02T12:46:07.657Z,5.80
2018-02-02T12:47:07.622Z,5.75
2018-02-02T12:48:07.630Z,5.91
2018-02-02T12:49:07.595Z,5.93
2018-02-02T12:50:07.596Z,6.07
2018-02-02T12:51:07.580Z,6.05
2018-02-02T12:52:07.563Z,6.19
2018-02-02T12:53:07.564Z,6.20
2018-02-02T12:54:07.567Z,6.24
2018-02-02T12:55:07.571Z,6.22
2018-02-02T12:56:07.523Z,6.28
2018-02-02T12:57:07.539Z,6.16
2018-02-02T12:58:07.527Z,6.14
2018-02-02T12:59:07.532Z,6.08
2018-02-02T13:00:07.498Z,6.09
2018-02-02T13:01:07.513Z,6.14
2018-02-02T13:02:07.503Z,6.17
2018-02-02T13:03:07.472Z,6.11
2018-02-02T13:04:07.464Z,6.02
2018-02-02T13:05:07.473Z,6.02
2018-02-02T13:06:07.448Z,5.99
2018-02-02T13:07:07.448Z,5.99
2018-02-02T13:08:07.460Z,6.02
2018-02-02T13:09:07.441Z,5.93
2018-02-02T13:10:07.420Z,6.08
2018-02-02T13:11:07.407Z,6.07
2018-02-02T13:12:07.405Z,6.04
2018-02-02T13:13:07.390Z,6.07
2018-02-02T13:14:07.380Z,6.07
2018-02-02T13:15:07.386Z,6.11
2018-02-02T13:16:07.359Z,6.04
2018-02-02T13:17:07.349Z,6.02
2018-02-02T13:18:07.365Z,6.02
2018-02-02T13:19:07.336Z,6.01
2018-02-02T13:20:07.325Z,5.93